sensor_id;sensor_type;location;lat;lon;timestamp;pressure;altitude;pressure_sealevel;temperature;humidity
21109;BME280;10712;52.944;9.098;2023-05-19T00:01:41;102719.97;;;16.01;44.79
21109;BME280;10712;52.944;9.098;2023-05-19T00:04:09;102716.34;;;16.02;44.73
21109;BME280;10712;52.944;9.098;2023-05-19T00:06:37;102715.28;;;16.05;44.88
21109;BME280;10712;52.944;9.098;2023-05-19T00:09:05;102716.53;;;15.98;44.53
21109;BME280;10712;52.944;9.098;2023-05-19T00:11:33;102709.97;;;15.86;44.82
21109;BME280;10712;52.944;9.098;2023-05-19T00:14:06;102716.34;;;15.84;44.90
21109;BME280;10712;52.944;9.098;2023-05-19T00:16:32;102708.47;;;15.81;44.89
21109;BME280;10712;52.944;9.098;2023-05-19T00:19:01;102710.56;;;15.74;44.83
21109;BME280;10712;52.944;9.098;2023-05-19T00:21:28;102708.13;;;15.69;45.01
21109;BME280;10712;52.944;9.098;2023-05-19T00:23:54;102711.75;;;15.68;44.98
21109;BME280;10712;52.944;9.098;2023-05-19T00:26:21;102713.31;;;15.72;44.94
21109;BME280;10712;52.944;9.098;2023-05-19T00:28:57;102708.31;;;15.65;44.94
21109;BME280;10712;52.944;9.098;2023-05-19T00:31:24;102699.84;;;15.55;44.99
21109;BME280;10712;52.944;9.098;2023-05-19T00:33:49;102699.31;;;15.47;45.15
21109;BME280;10712;52.944;9.098;2023-05-19T00:36:16;102695.00;;;15.43;45.34
21109;BME280;10712;52.944;9.098;2023-05-19T00:38:42;102706.44;;;15.48;45.45
21109;BME280;10712;52.944;9.098;2023-05-19T00:41:08;102695.47;;;15.53;45.48
21109;BME280;10712;52.944;9.098;2023-05-19T00:43:34;102699.69;;;15.58;45.59
21109;BME280;10712;52.944;9.098;2023-05-19T00:46:00;102696.78;;;15.63;45.56
21109;BME280;10712;52.944;9.098;2023-05-19T00:48:26;102696.13;;;15.58;45.56
21109;BME280;10712;52.944;9.098;2023-05-19T00:50:55;102696.47;;;15.50;45.37
21109;BME280;10712;52.944;9.098;2023-05-19T00:53:27;102701.19;;;15.45;45.67
21109;BME280;10712;52.944;9.098;2023-05-19T00:55:54;102695.31;;;15.37;45.83
21109;BME280;10712;52.944;9.098;2023-05-19T00:58:19;102688.47;;;15.30;46.01
21109;BME280;10712;52.944;9.098;2023-05-19T01:00:45;102688.94;;;15.21;45.99
21109;BME280;10712;52.944;9.098;2023-05-19T01:03:11;102687.47;;;15.14;46.15
21109;BME280;10712;52.944;9.098;2023-05-19T01:05:41;102691.97;;;15.13;46.27
21109;BME280;10712;52.944;9.098;2023-05-19T01:08:09;102695.25;;;15.20;46.49
21109;BME280;10712;52.944;9.098;2023-05-19T01:10:36;102703.88;;;15.26;46.58
21109;BME280;10712;52.944;9.098;2023-05-19T01:13:04;102702.84;;;15.29;46.40
21109;BME280;10712;52.944;9.098;2023-05-19T01:15:34;102694.06;;;15.25;46.36
21109;BME280;10712;52.944;9.098;2023-05-19T01:18:11;102698.69;;;15.22;46.42
21109;BME280;10712;52.944;9.098;2023-05-19T01:20:44;102697.13;;;15.18;46.48
21109;BME280;10712;52.944;9.098;2023-05-19T01:26:33;102697.00;;;15.01;46.76
21109;BME280;10712;52.944;9.098;2023-05-19T01:29:28;102696.75;;;15.07;46.89
21109;BME280;10712;52.944;9.098;2023-05-19T01:32:03;102697.53;;;15.09;46.79
21109;BME280;10712;52.944;9.098;2023-05-19T01:34:32;102695.28;;;15.00;46.83
21109;BME280;10712;52.944;9.098;2023-05-19T01:37:01;102698.16;;;14.95;46.95
21109;BME280;10712;52.944;9.098;2023-05-19T01:39:28;102698.16;;;14.95;46.97
21109;BME280;10712;52.944;9.098;2023-05-19T01:41:55;102701.66;;;14.97;47.01
21109;BME280;10712;52.944;9.098;2023-05-19T01:44:22;102702.66;;;14.94;46.91
21109;BME280;10712;52.944;9.098;2023-05-19T01:46:49;102699.31;;;14.89;47.05
21109;BME280;10712;52.944;9.098;2023-05-19T01:49:15;102702.41;;;14.80;47.13
21109;BME280;10712;52.944;9.098;2023-05-19T01:51:43;102698.13;;;14.76;47.26
21109;BME280;10712;52.944;9.098;2023-05-19T01:54:08;102699.00;;;14.77;47.38
21109;BME280;10712;52.944;9.098;2023-05-19T01:57:28;102708.88;;;14.76;47.47
21109;BME280;10712;52.944;9.098;2023-05-19T02:00:10;102710.44;;;14.80;47.41
21109;BME280;10712;52.944;9.098;2023-05-19T02:08:45;102700.00;;;14.74;47.63
21109;BME280;10712;52.944;9.098;2023-05-19T02:11:37;102697.41;;;14.73;47.33
21109;BME280;10712;52.944;9.098;2023-05-19T02:14:14;102694.91;;;14.68;47.43
21109;BME280;10712;52.944;9.098;2023-05-19T02:16:46;102695.06;;;14.65;47.30
21109;BME280;10712;52.944;9.098;2023-05-19T02:19:23;102688.06;;;14.61;47.29
21109;BME280;10712;52.944;9.098;2023-05-19T02:21:49;102693.66;;;14.56;47.40
21109;BME280;10712;52.944;9.098;2023-05-19T02:24:15;102694.69;;;14.52;47.44
21109;BME280;10712;52.944;9.098;2023-05-19T02:26:41;102692.22;;;14.48;47.46
21109;BME280;10712;52.944;9.098;2023-05-19T02:29:08;102694.09;;;14.46;47.74
21109;BME280;10712;52.944;9.098;2023-05-19T02:31:34;102694.25;;;14.43;47.74
21109;BME280;10712;52.944;9.098;2023-05-19T02:34:00;102693.38;;;14.42;47.88
21109;BME280;10712;52.944;9.098;2023-05-19T02:36:25;102691.63;;;14.41;47.95
21109;BME280;10712;52.944;9.098;2023-05-19T02:38:52;102692.63;;;14.39;47.99
21109;BME280;10712;52.944;9.098;2023-05-19T02:41:18;102690.91;;;14.38;47.91
21109;BME280;10712;52.944;9.098;2023-05-19T02:43:44;102692.63;;;14.39;48.11
21109;BME280;10712;52.944;9.098;2023-05-19T02:46:10;102693.44;;;14.41;48.11
21109;BME280;10712;52.944;9.098;2023-05-19T02:48:36;102688.00;;;14.42;48.18
21109;BME280;10712;52.944;9.098;2023-05-19T02:51:02;102688.88;;;14.43;48.14
21109;BME280;10712;52.944;9.098;2023-05-19T02:53:30;102683.59;;;14.41;47.94
21109;BME280;10712;52.944;9.098;2023-05-19T02:55:56;102684.69;;;14.36;48.12
21109;BME280;10712;52.944;9.098;2023-05-19T02:58:22;102685.91;;;14.29;48.04
21109;BME280;10712;52.944;9.098;2023-05-19T03:00:48;102680.66;;;14.26;48.17
21109;BME280;10712;52.944;9.098;2023-05-19T03:03:13;102677.03;;;14.27;48.26
21109;BME280;10712;52.944;9.098;2023-05-19T03:05:40;102672.34;;;14.32;48.48
21109;BME280;10712;52.944;9.098;2023-05-19T03:08:06;102675.03;;;14.32;48.26
21109;BME280;10712;52.944;9.098;2023-05-19T03:10:31;102678.47;;;14.35;48.42
21109;BME280;10712;52.944;9.098;2023-05-19T03:12:57;102674.66;;;14.41;48.51
21109;BME280;10712;52.944;9.098;2023-05-19T03:15:23;102674.53;;;14.44;48.54
21109;BME280;10712;52.944;9.098;2023-05-19T03:17:49;102668.03;;;14.49;48.55
21109;BME280;10712;52.944;9.098;2023-05-19T03:20:15;102677.63;;;14.55;48.63
21109;BME280;10712;52.944;9.098;2023-05-19T03:22:41;102668.75;;;14.53;48.31
21109;BME280;10712;52.944;9.098;2023-05-19T03:25:07;102669.78;;;14.50;48.49
21109;BME280;10712;52.944;9.098;2023-05-19T03:27:34;102671.00;;;14.43;48.35
21109;BME280;10712;52.944;9.098;2023-05-19T03:29:59;102676.53;;;14.39;48.41
21109;BME280;10712;52.944;9.098;2023-05-19T03:32:26;102678.50;;;14.34;48.37
21109;BME280;10712;52.944;9.098;2023-05-19T03:34:51;102681.34;;;14.31;48.33
21109;BME280;10712;52.944;9.098;2023-05-19T03:37:17;102677.84;;;14.29;48.42
21109;BME280;10712;52.944;9.098;2023-05-19T03:39:44;102682.28;;;14.30;48.58
21109;BME280;10712;52.944;9.098;2023-05-19T03:42:10;102682.13;;;14.33;48.60
21109;BME280;10712;52.944;9.098;2023-05-19T03:44:36;102673.97;;;14.36;48.58
21109;BME280;10712;52.944;9.098;2023-05-19T03:47:02;102678.41;;;14.37;48.69
21109;BME280;10712;52.944;9.098;2023-05-19T03:49:46;102680.03;;;14.41;48.59
21109;BME280;10712;52.944;9.098;2023-05-19T03:52:35;102681.66;;;14.45;48.62
21109;BME280;10712;52.944;9.098;2023-05-19T03:55:11;102681.50;;;14.48;48.71
21109;BME280;10712;52.944;9.098;2023-05-19T03:57:39;102678.75;;;14.49;48.70
21109;BME280;10712;52.944;9.098;2023-05-19T04:00:10;102681.50;;;14.48;48.72
21109;BME280;10712;52.944;9.098;2023-05-19T04:02:38;102679.63;;;14.50;48.71
21109;BME280;10712;52.944;9.098;2023-05-19T04:05:04;102677.78;;;14.52;48.54
21109;BME280;10712;52.944;9.098;2023-05-19T04:07:30;102687.47;;;14.54;48.75
21109;BME280;10712;52.944;9.098;2023-05-19T04:09:56;102688.28;;;14.56;48.76
21109;BME280;10712;52.944;9.098;2023-05-19T04:12:22;102690.97;;;14.56;48.71
21109;BME280;10712;52.944;9.098;2023-05-19T04:14:48;102691.84;;;14.57;48.75
21109;BME280;10712;52.944;9.098;2023-05-19T04:17:14;102681.09;;;14.57;48.54
21109;BME280;10712;52.944;9.098;2023-05-19T04:19:40;102686.47;;;14.57;48.57
21109;BME280;10712;52.944;9.098;2023-05-19T04:22:06;102694.59;;;14.55;48.66
21109;BME280;10712;52.944;9.098;2023-05-19T04:24:32;102692.63;;;14.59;48.47
21109;BME280;10712;52.944;9.098;2023-05-19T04:26:58;102698.81;;;14.61;48.79
21109;BME280;10712;52.944;9.098;2023-05-19T04:29:29;102691.56;;;14.63;48.75
21109;BME280;10712;52.944;9.098;2023-05-19T04:31:55;102690.56;;;14.66;48.94
21109;BME280;10712;52.944;9.098;2023-05-19T04:34:25;102694.09;;;14.66;48.79
21109;BME280;10712;52.944;9.098;2023-05-19T04:36:53;102698.69;;;14.64;48.72
21109;BME280;10712;52.944;9.098;2023-05-19T04:39:21;102701.44;;;14.63;48.99
21109;BME280;10712;52.944;9.098;2023-05-19T04:41:48;102693.38;;;14.63;49.00
21109;BME280;10712;52.944;9.098;2023-05-19T04:44:14;102698.69;;;14.64;48.83
21109;BME280;10712;52.944;9.098;2023-05-19T04:46:43;102698.69;;;14.64;48.82
21109;BME280;10712;52.944;9.098;2023-05-19T04:49:10;102695.06;;;14.65;49.00
21109;BME280;10712;52.944;9.098;2023-05-19T04:51:40;102695.06;;;14.65;49.00
21109;BME280;10712;52.944;9.098;2023-05-19T04:54:09;102689.69;;;14.65;49.07
21109;BME280;10712;52.944;9.098;2023-05-19T04:56:35;102690.34;;;14.70;49.25
21109;BME280;10712;52.944;9.098;2023-05-19T04:59:01;102694.63;;;14.74;49.09
21109;BME280;10712;52.944;9.098;2023-05-19T05:01:27;102697.19;;;14.77;49.12
21109;BME280;10712;52.944;9.098;2023-05-19T05:03:56;102696.25;;;14.78;49.27
21109;BME280;10712;52.944;9.098;2023-05-19T05:06:23;102695.31;;;14.79;49.26
21109;BME280;10712;52.944;9.098;2023-05-19T05:08:50;102694.34;;;14.80;49.26
21109;BME280;10712;52.944;9.098;2023-05-19T05:11:17;102693.47;;;14.80;49.31
21109;BME280;10712;52.944;9.098;2023-05-19T05:13:43;102691.66;;;14.80;49.16
21109;BME280;10712;52.944;9.098;2023-05-19T05:16:10;102697.84;;;14.82;49.18
21109;BME280;10712;52.944;9.098;2023-05-19T05:18:37;102704.09;;;14.83;49.27
21109;BME280;10712;52.944;9.098;2023-05-19T05:21:05;102704.03;;;14.84;49.35
21109;BME280;10712;52.944;9.098;2023-05-19T05:23:33;102704.84;;;14.86;49.26
21109;BME280;10712;52.944;9.098;2023-05-19T05:26:09;102702.00;;;14.89;49.23
21109;BME280;10712;52.944;9.098;2023-05-19T05:28:40;102707.31;;;14.91;49.33
21109;BME280;10712;52.944;9.098;2023-05-19T05:31:06;102703.63;;;14.93;49.15
21109;BME280;10712;52.944;9.098;2023-05-19T05:33:33;102706.31;;;14.93;49.18
21109;BME280;10712;52.944;9.098;2023-05-19T05:35:59;102706.97;;;14.98;49.17
21109;BME280;10712;52.944;9.098;2023-05-19T05:38:25;102703.19;;;15.03;49.41
21109;BME280;10712;52.944;9.098;2023-05-19T05:40:51;102701.09;;;15.09;49.31
21109;BME280;10712;52.944;9.098;2023-05-19T05:43:17;102701.53;;;15.19;49.44
21109;BME280;10712;52.944;9.098;2023-05-19T05:45:48;102705.97;;;15.20;49.54
21109;BME280;10712;52.944;9.098;2023-05-19T05:48:15;102699.28;;;15.28;49.46
21109;BME280;10712;52.944;9.098;2023-05-19T05:50:43;102707.66;;;15.41;49.47
21109;BME280;10712;52.944;9.098;2023-05-19T05:53:19;102707.22;;;15.50;49.75
21109;BME280;10712;52.944;9.098;2023-05-19T05:55:48;102701.44;;;15.59;49.58
21109;BME280;10712;52.944;9.098;2023-05-19T05:58:14;102701.31;;;15.62;49.80
21109;BME280;10712;52.944;9.098;2023-05-19T06:00:44;102701.63;;;15.73;49.75
21109;BME280;10712;52.944;9.098;2023-05-19T06:03:13;102705.59;;;15.84;49.59
21109;BME280;10712;52.944;9.098;2023-05-19T06:05:42;102706.91;;;15.94;49.63
21109;BME280;10712;52.944;9.098;2023-05-19T06:08:08;102703.09;;;15.98;49.76
21109;BME280;10712;52.944;9.098;2023-05-19T06:10:35;102705.34;;;16.07;49.78
21109;BME280;10712;52.944;9.098;2023-05-19T06:13:06;102701.09;;;16.20;49.64
21109;BME280;10712;52.944;9.098;2023-05-19T06:15:32;102700.63;;;16.29;49.70
21109;BME280;10712;52.944;9.098;2023-05-19T06:18:09;102702.84;;;16.38;49.80
21109;BME280;10712;52.944;9.098;2023-05-19T06:20:34;102700.31;;;16.52;49.80
21109;BME280;10712;52.944;9.098;2023-05-19T06:23:02;102699.63;;;16.66;49.79
21109;BME280;10712;52.944;9.098;2023-05-19T06:25:28;102694.28;;;16.82;49.90
21109;BME280;10712;52.944;9.098;2023-05-19T06:27:54;102696.16;;;16.97;49.83
21109;BME280;10712;52.944;9.098;2023-05-19T06:30:21;102698.09;;;17.11;49.79
21109;BME280;10712;52.944;9.098;2023-05-19T06:32:57;102694.50;;;17.27;49.72
21109;BME280;10712;52.944;9.098;2023-05-19T06:35:24;102692.84;;;17.41;49.63
21109;BME280;10712;52.944;9.098;2023-05-19T06:37:50;102697.53;;;17.53;49.52
21109;BME280;10712;52.944;9.098;2023-05-19T06:40:16;102686.00;;;17.66;49.44
21109;BME280;10712;52.944;9.098;2023-05-19T06:42:42;102690.63;;;17.80;49.23
21109;BME280;10712;52.944;9.098;2023-05-19T06:45:30;102688.06;;;17.93;49.20
21109;BME280;10712;52.944;9.098;2023-05-19T06:47:59;102690.75;;;18.08;49.09
21109;BME280;10712;52.944;9.098;2023-05-19T06:50:25;102689.06;;;18.22;49.04
21109;BME280;10712;52.944;9.098;2023-05-19T06:52:51;102690.06;;;18.35;48.93
21109;BME280;10712;52.944;9.098;2023-05-19T06:55:18;102692.22;;;18.44;48.79
21109;BME280;10712;52.944;9.098;2023-05-19T06:57:43;102690.69;;;18.54;48.56
21109;BME280;10712;52.944;9.098;2023-05-19T07:00:13;102689.41;;;18.75;48.31
21109;BME280;10712;52.944;9.098;2023-05-19T07:02:42;102683.25;;;18.87;47.47
21109;BME280;10712;52.944;9.098;2023-05-19T07:05:08;102689.81;;;18.98;47.18
21109;BME280;10712;52.944;9.098;2023-05-19T07:07:34;102689.03;;;19.10;47.03
21109;BME280;10712;52.944;9.098;2023-05-19T07:10:01;102684.78;;;19.20;46.74
21109;BME280;10712;52.944;9.098;2023-05-19T07:12:28;102686.69;;;19.32;46.73
21109;BME280;10712;52.944;9.098;2023-05-19T07:14:56;102688.59;;;19.44;46.14
21109;BME280;10712;52.944;9.098;2023-05-19T07:17:23;102691.72;;;19.52;45.89
21109;BME280;10712;52.944;9.098;2023-05-19T07:19:48;102690.16;;;19.62;46.04
21109;BME280;10712;52.944;9.098;2023-05-19T07:22:14;102690.31;;;19.74;46.18
21109;BME280;10712;52.944;9.098;2023-05-19T07:24:40;102693.38;;;19.82;46.58
21109;BME280;10712;52.944;9.098;2023-05-19T07:27:06;102698.84;;;19.94;46.25
21109;BME280;10712;52.944;9.098;2023-05-19T07:29:32;102686.53;;;20.03;46.62
21109;BME280;10712;52.944;9.098;2023-05-19T07:31:57;102682.47;;;20.10;46.45
21109;BME280;10712;52.944;9.098;2023-05-19T07:34:24;102683.78;;;20.17;46.14
21109;BME280;10712;52.944;9.098;2023-05-19T07:36:49;102684.00;;;20.27;46.16
21109;BME280;10712;52.944;9.098;2023-05-19T07:39:16;102683.63;;;20.33;45.60
21109;BME280;10712;52.944;9.098;2023-05-19T07:41:42;102675.72;;;20.42;45.50
21109;BME280;10712;52.944;9.098;2023-05-19T07:44:08;102672.16;;;20.55;45.19
21109;BME280;10712;52.944;9.098;2023-05-19T07:46:35;102671.31;;;20.67;45.09
21109;BME280;10712;52.944;9.098;2023-05-19T07:49:03;102671.97;;;20.83;45.04
21109;BME280;10712;52.944;9.098;2023-05-19T07:51:28;102671.41;;;21.03;44.78
21109;BME280;10712;52.944;9.098;2023-05-19T07:53:54;102658.94;;;21.13;44.16
21109;BME280;10712;52.944;9.098;2023-05-19T07:56:20;102668.69;;;21.29;43.75
21109;BME280;10712;52.944;9.098;2023-05-19T07:58:46;102665.53;;;21.35;43.01
21109;BME280;10712;52.944;9.098;2023-05-19T08:01:12;102664.31;;;21.39;42.49
21109;BME280;10712;52.944;9.098;2023-05-19T08:03:37;102662.44;;;21.52;42.81
21109;BME280;10712;52.944;9.098;2023-05-19T08:06:03;102669.44;;;21.67;42.81
21109;BME280;10712;52.944;9.098;2023-05-19T08:08:29;102672.75;;;21.83;42.62
21109;BME280;10712;52.944;9.098;2023-05-19T08:11:02;102660.00;;;21.96;42.52
21109;BME280;10712;52.944;9.098;2023-05-19T08:13:29;102657.09;;;22.11;41.29
21109;BME280;10712;52.944;9.098;2023-05-19T08:15:55;102660.09;;;22.19;41.35
21109;BME280;10712;52.944;9.098;2023-05-19T08:18:26;102657.91;;;22.24;41.10
21109;BME280;10712;52.944;9.098;2023-05-19T08:20:52;102657.91;;;22.24;41.15
21109;BME280;10712;52.944;9.098;2023-05-19T08:23:20;102653.47;;;22.34;41.86
21109;BME280;10712;52.944;9.098;2023-05-19T08:25:46;102653.25;;;22.48;41.89
21109;BME280;10712;52.944;9.098;2023-05-19T08:28:12;102649.34;;;22.63;41.45
21109;BME280;10712;52.944;9.098;2023-05-19T08:30:38;102650.38;;;22.73;41.01
21109;BME280;10712;52.944;9.098;2023-05-19T08:33:04;102651.63;;;22.81;40.83
21109;BME280;10712;52.944;9.098;2023-05-19T08:35:31;102645.94;;;22.95;40.53
21109;BME280;10712;52.944;9.098;2023-05-19T08:37:56;102640.25;;;23.09;40.34
21109;BME280;10712;52.944;9.098;2023-05-19T08:40:22;102647.16;;;23.24;39.56
21109;BME280;10712;52.944;9.098;2023-05-19T08:42:48;102640.22;;;23.31;39.47
21109;BME280;10712;52.944;9.098;2023-05-19T08:45:14;102638.50;;;23.30;39.19
21109;BME280;10712;52.944;9.098;2023-05-19T08:47:41;102641.44;;;23.38;38.86
21109;BME280;10712;52.944;9.098;2023-05-19T08:50:12;102633.78;;;23.43;38.92
21109;BME280;10712;52.944;9.098;2023-05-19T08:52:51;102626.59;;;23.53;38.70
21109;BME280;10712;52.944;9.098;2023-05-19T08:55:48;102617.69;;;23.63;36.94
21109;BME280;10712;52.944;9.098;2023-05-19T08:58:18;102623.28;;;23.82;37.38
21109;BME280;10712;52.944;9.098;2023-05-19T09:00:47;102611.63;;;23.91;37.24
21109;BME280;10712;52.944;9.098;2023-05-19T09:03:14;102607.44;;;24.08;36.30
21109;BME280;10712;52.944;9.098;2023-05-19T09:05:42;102609.38;;;24.17;36.44
21109;BME280;10712;52.944;9.098;2023-05-19T09:08:08;102593.91;;;24.17;36.02
21109;BME280;10712;52.944;9.098;2023-05-19T09:10:33;102599.25;;;24.19;36.15
21109;BME280;10712;52.944;9.098;2023-05-19T09:12:59;102595.34;;;24.32;36.31
21109;BME280;10712;52.944;9.098;2023-05-19T09:15:26;102598.53;;;24.38;36.45
21109;BME280;10712;52.944;9.098;2023-05-19T09:18:25;102594.00;;;24.48;35.60
21109;BME280;10712;52.944;9.098;2023-05-19T09:20:58;102598.94;;;24.63;35.48
21109;BME280;10712;52.944;9.098;2023-05-19T09:23:28;102601.44;;;24.76;35.31
21109;BME280;10712;52.944;9.098;2023-05-19T09:25:55;102595.91;;;24.87;32.22
21109;BME280;10712;52.944;9.098;2023-05-19T09:28:29;102592.06;;;24.90;32.31
21109;BME280;10712;52.944;9.098;2023-05-19T09:31:02;102593.66;;;24.92;33.44
21109;BME280;10712;52.944;9.098;2023-05-19T09:33:32;102591.94;;;24.91;34.71
21109;BME280;10712;52.944;9.098;2023-05-19T09:35:58;102593.84;;;25.00;35.68
21109;BME280;10712;52.944;9.098;2023-05-19T09:38:25;102595.75;;;25.09;35.06
21109;BME280;10712;52.944;9.098;2023-05-19T09:40:55;102584.28;;;25.16;33.58
21109;BME280;10712;52.944;9.098;2023-05-19T09:43:22;102584.56;;;25.32;33.37
21109;BME280;10712;52.944;9.098;2023-05-19T09:45:54;102582.31;;;25.37;34.35
21109;BME280;10712;52.944;9.098;2023-05-19T09:48:20;102583.47;;;25.44;33.84
21109;BME280;10712;52.944;9.098;2023-05-19T09:50:47;102578.28;;;25.41;33.70
21109;BME280;10712;52.944;9.098;2023-05-19T09:53:13;102575.97;;;25.27;33.74
21109;BME280;10712;52.944;9.098;2023-05-19T09:55:41;102574.53;;;25.32;33.93
21109;BME280;10712;52.944;9.098;2023-05-19T09:58:08;102572.25;;;25.37;34.85
21109;BME280;10712;52.944;9.098;2023-05-19T10:00:36;102566.53;;;25.50;34.41
21109;BME280;10712;52.944;9.098;2023-05-19T10:03:04;102565.69;;;25.59;33.65
21109;BME280;10712;52.944;9.098;2023-05-19T10:05:31;102566.53;;;25.60;32.99
21109;BME280;10712;52.944;9.098;2023-05-19T10:07:57;102555.31;;;25.53;32.59
21109;BME280;10712;52.944;9.098;2023-05-19T10:10:24;102557.59;;;25.48;32.25
21109;BME280;10712;52.944;9.098;2023-05-19T10:12:53;102557.88;;;25.45;32.71
21109;BME280;10712;52.944;9.098;2023-05-19T10:15:20;102549.00;;;25.43;32.63
21109;BME280;10712;52.944;9.098;2023-05-19T10:17:46;102542.09;;;25.48;32.19
21109;BME280;10712;52.944;9.098;2023-05-19T10:20:14;102544.69;;;25.60;31.55
21109;BME280;10712;52.944;9.098;2023-05-19T10:22:42;102547.16;;;25.72;31.59
21109;BME280;10712;52.944;9.098;2023-05-19T10:25:10;102543.28;;;25.84;31.86
21109;BME280;10712;52.944;9.098;2023-05-19T10:27:49;102540.09;;;25.79;31.34
21109;BME280;10712;52.944;9.098;2023-05-19T10:30:28;102531.78;;;25.71;31.31
21109;BME280;10712;52.944;9.098;2023-05-19T10:32:58;102540.41;;;25.76;31.35
21109;BME280;10712;52.944;9.098;2023-05-19T10:41:11;102534.91;;;25.57;31.45
21109;BME280;10712;52.944;9.098;2023-05-19T10:46:10;102539.09;;;25.80;31.78
21109;BME280;10712;52.944;9.098;2023-05-19T10:48:36;102526.75;;;25.86;30.80
21109;BME280;10712;52.944;9.098;2023-05-19T10:51:03;102522.09;;;26.06;30.67
21109;BME280;10712;52.944;9.098;2023-05-19T10:53:32;102526.97;;;26.12;30.15
21109;BME280;10712;52.944;9.098;2023-05-19T10:56:01;102528.53;;;26.14;30.84
21109;BME280;10712;52.944;9.098;2023-05-19T11:01:18;102523.06;;;26.24;29.72
21109;BME280;10712;52.944;9.098;2023-05-19T11:03:55;102526.53;;;26.26;29.68
21109;BME280;10712;52.944;9.098;2023-05-19T11:06:26;102521.06;;;26.26;29.68
21109;BME280;10712;52.944;9.098;2023-05-19T11:09:14;102524.06;;;26.23;29.53
21109;BME280;10712;52.944;9.098;2023-05-19T11:11:49;102515.88;;;26.33;29.52
21109;BME280;10712;52.944;9.098;2023-05-19T11:14:25;102512.94;;;26.44;28.96
21109;BME280;10712;52.944;9.098;2023-05-19T11:16:56;102507.19;;;26.47;29.12
21109;BME280;10712;52.944;9.098;2023-05-19T11:19:31;102511.03;;;26.54;30.20
21109;BME280;10712;52.944;9.098;2023-05-19T11:22:22;102507.97;;;26.66;30.25
21109;BME280;10712;52.944;9.098;2023-05-19T11:24:49;102511.19;;;26.80;29.77
21109;BME280;10712;52.944;9.098;2023-05-19T11:27:33;102500.97;;;26.82;29.63
21109;BME280;10712;52.944;9.098;2023-05-19T11:30:09;102506.44;;;26.82;29.13
21109;BME280;10712;52.944;9.098;2023-05-19T11:32:40;102507.34;;;26.73;29.36
21109;BME280;10712;52.944;9.098;2023-05-19T11:35:09;102504.81;;;26.61;29.45
21109;BME280;10712;52.944;9.098;2023-05-19T11:37:35;102500.66;;;26.57;29.67
21109;BME280;10712;52.944;9.098;2023-05-19T11:40:03;102498.31;;;26.62;29.77
21109;BME280;10712;52.944;9.098;2023-05-19T11:42:32;102501.59;;;26.76;29.39
21109;BME280;10712;52.944;9.098;2023-05-19T11:45:02;102496.63;;;26.89;29.65
21109;BME280;10712;52.944;9.098;2023-05-19T11:47:30;102497.75;;;26.96;29.62
21109;BME280;10712;52.944;9.098;2023-05-19T11:49:59;102486.81;;;26.96;29.61
21109;BME280;10712;52.944;9.098;2023-05-19T11:52:25;102501.78;;;26.92;29.31
21109;BME280;10712;52.944;9.098;2023-05-19T11:54:58;102490.56;;;26.95;29.27
21109;BME280;10712;52.944;9.098;2023-05-19T11:57:25;102487.59;;;27.06;29.70
21109;BME280;10712;52.944;9.098;2023-05-19T11:59:51;102489.59;;;27.04;30.20
21109;BME280;10712;52.944;9.098;2023-05-19T12:02:22;102499.41;;;27.07;30.13
21109;BME280;10712;52.944;9.098;2023-05-19T12:04:53;102491.97;;;26.99;30.11
21109;BME280;10712;52.944;9.098;2023-05-19T12:07:23;102485.09;;;26.85;29.65
21109;BME280;10712;52.944;9.098;2023-05-19T12:09:50;102486.97;;;26.85;29.22
21109;BME280;10712;52.944;9.098;2023-05-19T12:12:21;102482.78;;;26.90;28.51
21109;BME280;10712;52.944;9.098;2023-05-19T12:14:49;102485.69;;;26.89;28.34
21109;BME280;10712;52.944;9.098;2023-05-19T12:17:20;102484.56;;;26.82;28.84
21109;BME280;10712;52.944;9.098;2023-05-19T12:19:47;102481.00;;;26.72;29.65
21109;BME280;10712;52.944;9.098;2023-05-19T12:22:15;102480.91;;;26.63;29.64
21109;BME280;10712;52.944;9.098;2023-05-19T12:24:43;102473.41;;;26.65;30.06
21109;BME280;10712;52.944;9.098;2023-05-19T12:27:10;102478.66;;;26.77;30.64
21109;BME280;10712;52.944;9.098;2023-05-19T12:29:39;102474.50;;;26.82;30.60
21109;BME280;10712;52.944;9.098;2023-05-19T12:32:08;102472.19;;;26.78;30.02
21109;BME280;10712;52.944;9.098;2023-05-19T12:34:36;102479.00;;;26.74;29.40
21109;BME280;10712;52.944;9.098;2023-05-19T12:37:04;102470.84;;;26.64;30.30
21109;BME280;10712;52.944;9.098;2023-05-19T12:39:30;102473.47;;;26.56;30.33
21109;BME280;10712;52.944;9.098;2023-05-19T12:42:04;102472.81;;;26.44;30.29
21109;BME280;10712;52.944;9.098;2023-05-19T12:44:48;102468.66;;;26.40;30.02
21109;BME280;10712;52.944;9.098;2023-05-19T12:47:19;102466.34;;;26.45;29.74
21109;BME280;10712;52.944;9.098;2023-05-19T12:50:08;102458.28;;;26.44;30.11
21109;BME280;10712;52.944;9.098;2023-05-19T12:52:48;102461.16;;;26.42;30.35
21109;BME280;10712;52.944;9.098;2023-05-19T12:55:17;102455.13;;;26.48;30.87
21109;BME280;10712;52.944;9.098;2023-05-19T12:57:51;102450.44;;;26.58;29.94
21109;BME280;10712;52.944;9.098;2023-05-19T13:00:23;102451.53;;;26.65;28.63
21109;BME280;10712;52.944;9.098;2023-05-19T13:03:04;102452.44;;;26.56;29.63
21109;BME280;10712;52.944;9.098;2023-05-19T13:05:42;102456.81;;;26.49;29.38
21109;BME280;10712;52.944;9.098;2023-05-19T13:08:19;102446.97;;;26.56;29.51
21109;BME280;10712;52.944;9.098;2023-05-19T13:10:46;102449.19;;;26.71;29.45
21109;BME280;10712;52.944;9.098;2023-05-19T13:13:13;102451.84;;;26.62;30.47
21109;BME280;10712;52.944;9.098;2023-05-19T13:15:42;102448.00;;;26.55;30.43
21109;BME280;10712;52.944;9.098;2023-05-19T13:18:11;102441.59;;;26.47;30.60
21109;BME280;10712;52.944;9.098;2023-05-19T13:20:39;102447.50;;;26.42;31.03